createdAt,value
2018-02-27T00:00:35.297Z,101778.56
2018-02-27T00:03:03.830Z,101781.67
2018-02-27T00:05:32.243Z,101774.86
2018-02-27T00:08:01.396Z,101768.50
2018-02-27T00:10:29.800Z,101772.11
2018-02-27T00:12:58.202Z,101765.30
2018-02-27T00:15:27.407Z,101777.28
2018-02-27T00:17:56.601Z,101762.43
2018-02-27T00:20:25.752Z,101767.28
2018-02-27T00:22:54.155Z,101758.69
2018-02-27T00:25:23.368Z,101756.03
2018-02-27T00:27:51.777Z,101761.61
2018-02-27T00:30:20.159Z,101759.27
2018-02-27T00:32:48.634Z,101758.25
2018-02-27T00:35:17.044Z,101764.41
2018-02-27T00:37:45.424Z,101761.30
2018-02-27T00:40:13.914Z,101772.78
2018-02-27T00:42:42.299Z,101778.42
2018-02-27T00:45:10.708Z,101782.92
2018-02-27T00:47:39.896Z,101784.66
2018-02-27T00:50:08.292Z,101791.10
2018-02-27T00:52:36.794Z,101792.27
2018-02-27T00:55:05.948Z,101789.70
2018-02-27T00:57:34.328Z,101782.44
2018-02-27T01:00:03.460Z,101799.34
2018-02-27T01:02:31.870Z,101801.33
2018-02-27T01:05:00.268Z,101801.05
2018-02-27T01:07:28.640Z,101801.83
2018-02-27T01:09:57.085Z,101799.16
2018-02-27T01:12:26.240Z,101790.95
2018-02-27T01:14:54.636Z,101791.80
2018-02-27T01:17:23.042Z,101798.61
2018-02-27T01:19:52.292Z,101798.48
2018-02-27T01:22:20.660Z,101803.68
2018-02-27T01:24:49.039Z,101793.09
2018-02-27T01:27:17.431Z,101804.97
2018-02-27T01:29:45.923Z,101801.63
2018-02-27T01:32:14.447Z,101802.14
2018-02-27T01:34:43.587Z,101794.49
2018-02-27T01:37:11.959Z,101794.22
2018-02-27T01:39:40.346Z,101792.31
2018-02-27T01:42:08.740Z,101794.59
2018-02-27T01:44:37.118Z,101794.70
2018-02-27T01:47:05.500Z,101789.97
2018-02-27T01:49:33.895Z,101797.13
2018-02-27T01:52:02.357Z,101797.39
2018-02-27T01:54:30.756Z,101795.84
2018-02-27T01:56:59.130Z,101799.00
2018-02-27T01:59:27.529Z,101801.53
2018-02-27T02:01:55.913Z,101803.04
2018-02-27T02:04:24.287Z,101797.19
2018-02-27T02:06:52.681Z,101793.90
2018-02-27T02:09:21.207Z,101790.38
2018-02-27T02:11:50.462Z,101786.52
2018-02-27T02:14:18.849Z,101788.03
2018-02-27T02:16:47.275Z,101777.83
2018-02-27T02:19:15.779Z,101780.72
2018-02-27T02:21:44.271Z,101782.77
2018-02-27T02:24:12.651Z,101780.67
2018-02-27T02:26:41.040Z,101779.64
2018-02-27T02:29:09.452Z,101781.89
2018-02-27T02:31:37.863Z,101784.77
2018-02-27T02:34:07.034Z,101780.84
2018-02-27T02:36:35.436Z,101779.51
2018-02-27T02:39:04.605Z,101774.95
2018-02-27T02:41:33.001Z,101774.38
2018-02-27T02:44:02.201Z,101788.30
2018-02-27T02:46:30.596Z,101786.50
2018-02-27T02:48:59.880Z,101783.22
2018-02-27T02:51:28.302Z,101781.36
2018-02-27T02:53:56.695Z,101782.03
2018-02-27T02:56:25.108Z,101783.09
2018-02-27T02:58:53.563Z,101787.91
2018-02-27T03:01:22.003Z,101784.30
2018-02-27T03:03:51.144Z,101778.58
2018-02-27T03:06:20.512Z,101784.50
2018-02-27T03:08:49.672Z,101782.20
2018-02-27T03:11:18.223Z,101775.95
2018-02-27T03:13:46.612Z,101771.99
2018-02-27T03:16:15.008Z,101782.61
2018-02-27T03:18:43.376Z,101776.74
2018-02-27T03:21:11.886Z,101778.58
2018-02-27T03:23:40.414Z,101776.92
2018-02-27T03:26:10.015Z,101772.52
2018-02-27T03:28:39.200Z,101772.77
2018-02-27T03:31:07.609Z,101768.95
2018-02-27T03:33:36.832Z,101775.92
2018-02-27T03:36:05.325Z,101774.77
2018-02-27T03:38:33.781Z,101775.34
2018-02-27T03:41:02.183Z,101773.13
2018-02-27T03:43:30.712Z,101773.84
2018-02-27T03:45:59.268Z,101772.87
2018-02-27T03:48:27.711Z,101772.88
2018-02-27T03:50:56.095Z,101778.26
2018-02-27T03:53:24.468Z,101772.69
2018-02-27T03:55:53.036Z,101777.05
2018-02-27T03:58:22.387Z,101775.75
2018-02-27T04:00:50.773Z,101781.16
2018-02-27T04:03:19.163Z,101775.86
2018-02-27T04:05:47.565Z,101775.47
2018-02-27T04:08:16.000Z,101769.98
2018-02-27T04:10:45.116Z,101772.92
2018-02-27T04:13:13.596Z,101770.45
2018-02-27T04:15:42.271Z,101765.22
2018-02-27T04:18:10.638Z,101768.87
2018-02-27T04:20:39.016Z,101764.58
2018-02-27T04:23:07.413Z,101764.73
2018-02-27T04:25:35.773Z,101771.31
2018-02-27T04:28:04.971Z,101769.89
2018-02-27T04:30:34.147Z,101770.84
2018-02-27T04:33:03.305Z,101766.41
2018-02-27T04:35:31.741Z,101764.84
2018-02-27T04:38:00.943Z,101762.46
2018-02-27T04:40:30.259Z,101761.45
2018-02-27T04:42:58.736Z,101772.47
2018-02-27T04:45:27.872Z,101763.03
2018-02-27T04:47:56.284Z,101769.64
2018-02-27T04:50:24.690Z,101766.11
2018-02-27T04:52:53.854Z,101769.06
2018-02-27T04:55:22.283Z,101769.74
2018-02-27T04:57:51.436Z,101771.39
2018-02-27T05:00:19.836Z,101773.30
2018-02-27T05:02:48.976Z,101763.80
2018-02-27T05:05:17.453Z,101771.31
2018-02-27T05:07:46.049Z,101772.06
2018-02-27T05:10:14.443Z,101767.51
2018-02-27T05:12:42.830Z,101767.83
2018-02-27T05:15:11.226Z,101765.66
2018-02-27T05:17:39.627Z,101769.77
2018-02-27T05:20:08.265Z,101765.08
2018-02-27T05:22:36.666Z,101761.92
2018-02-27T05:25:05.039Z,101763.08
2018-02-27T05:27:33.446Z,101763.24
2018-02-27T05:30:01.999Z,101764.70
2018-02-27T05:32:31.297Z,101758.20
2018-02-27T05:34:59.761Z,101759.90
2018-02-27T05:37:28.134Z,101757.09
2018-02-27T05:39:57.307Z,101755.34
2018-02-27T05:42:25.819Z,101758.97
2018-02-27T05:44:54.986Z,101757.48
2018-02-27T05:47:23.380Z,101755.03
2018-02-27T05:49:51.917Z,101761.44
2018-02-27T05:52:20.448Z,101751.84
2018-02-27T05:54:48.847Z,101756.70
2018-02-27T05:57:18.037Z,101749.16
2018-02-27T05:59:47.254Z,101753.39
2018-02-27T06:02:16.404Z,101755.56
2018-02-27T06:04:44.803Z,101756.45
2018-02-27T06:07:13.177Z,101760.06
2018-02-27T06:09:41.703Z,101761.32
2018-02-27T06:12:10.107Z,101754.48
2018-02-27T06:14:38.526Z,101754.73
2018-02-27T06:17:07.705Z,101757.98
2018-02-27T06:19:36.097Z,101753.43
2018-02-27T06:22:04.495Z,101758.01
2018-02-27T06:24:32.879Z,101755.28
2018-02-27T06:27:02.066Z,101754.17
2018-02-27T06:29:30.476Z,101758.84
2018-02-27T06:31:59.675Z,101771.64
2018-02-27T06:34:28.876Z,101766.59
2018-02-27T06:36:58.023Z,101769.28
2018-02-27T06:39:26.461Z,101771.93
2018-02-27T06:41:55.636Z,101772.04
2018-02-27T06:44:24.799Z,101770.38
2018-02-27T06:46:53.227Z,101771.06
2018-02-27T06:49:22.416Z,101773.38
2018-02-27T06:51:50.839Z,101766.06
2018-02-27T06:54:19.214Z,101771.98
2018-02-27T06:56:48.490Z,101774.66
2018-02-27T06:59:16.893Z,101769.51
2018-02-27T07:01:45.297Z,101767.23
2018-02-27T07:04:13.858Z,101769.69
2018-02-27T07:06:42.399Z,101760.86
2018-02-27T07:09:10.820Z,101759.34
2018-02-27T07:11:40.023Z,101758.03
2018-02-27T07:14:08.431Z,101752.05
2018-02-27T07:16:36.845Z,101750.72
2018-02-27T07:19:05.279Z,101751.84
2018-02-27T07:21:33.652Z,101753.73
2018-02-27T07:24:03.006Z,101753.56
2018-02-27T07:26:31.500Z,101756.36
2018-02-27T07:28:59.906Z,101754.02
2018-02-27T07:31:29.095Z,101746.56
2018-02-27T07:33:57.540Z,101748.44
2018-02-27T07:36:26.175Z,101743.08
2018-02-27T07:38:55.896Z,101736.56
2018-02-27T07:41:25.067Z,101744.09
2018-02-27T07:43:53.436Z,101742.69
2018-02-27T07:46:21.868Z,101738.96
2018-02-27T07:48:51.043Z,101742.33
2018-02-27T07:51:19.448Z,101739.05
2018-02-27T07:53:48.968Z,101742.54
2018-02-27T07:56:17.356Z,101740.25
2018-02-27T07:58:45.783Z,101746.13
2018-02-27T08:01:14.195Z,101744.13
2018-02-27T08:03:43.405Z,101736.37
2018-02-27T08:06:12.558Z,101743.64
2018-02-27T08:08:41.027Z,101741.26
2018-02-27T08:11:09.423Z,101740.00
2018-02-27T08:13:37.947Z,101740.97
2018-02-27T08:16:06.358Z,101742.36
2018-02-27T08:18:34.795Z,101728.61
2018-02-27T08:21:04.109Z,101732.63
2018-02-27T08:23:33.274Z,101727.71
2018-02-27T08:26:01.670Z,101725.37
2018-02-27T08:28:30.226Z,101716.87
2018-02-27T08:30:58.647Z,101718.25
2018-02-27T08:33:27.796Z,101715.16
2018-02-27T08:35:56.192Z,101710.83
2018-02-27T08:38:24.575Z,101715.72
2018-02-27T08:40:53.086Z,101712.33
2018-02-27T08:43:22.282Z,101713.31
2018-02-27T08:45:50.744Z,101710.76
2018-02-27T08:48:19.206Z,101711.37
2018-02-27T08:50:47.585Z,101705.91
2018-02-27T08:53:16.155Z,101707.94
2018-02-27T08:55:44.715Z,101711.33
2018-02-27T08:58:13.944Z,101704.41
2018-02-27T09:00:42.328Z,101698.63
2018-02-27T09:03:10.709Z,101700.92
2018-02-27T09:05:39.106Z,101707.36
2018-02-27T09:08:08.409Z,101707.59
2018-02-27T09:10:36.783Z,101706.52
2018-02-27T09:13:05.172Z,101702.98
2018-02-27T09:15:33.923Z,101696.73
2018-02-27T09:18:02.297Z,101691.27
2018-02-27T09:20:31.501Z,101691.22
2018-02-27T09:22:59.899Z,101674.66
2018-02-27T09:25:28.282Z,101673.47
2018-02-27T09:27:56.793Z,101662.50
2018-02-27T09:30:25.198Z,101669.58
2018-02-27T09:32:53.609Z,101659.08
2018-02-27T09:35:21.968Z,101655.47
2018-02-27T09:37:51.182Z,101648.24
2018-02-27T09:40:20.342Z,101646.02
2018-02-27T09:42:48.743Z,101639.02
2018-02-27T09:45:17.902Z,101638.91
2018-02-27T09:47:46.284Z,101624.85
2018-02-27T09:50:14.771Z,101633.05
2018-02-27T09:52:43.286Z,101632.25
2018-02-27T09:55:12.627Z,101628.79
2018-02-27T09:57:40.999Z,101632.51
2018-02-27T10:00:09.444Z,101624.34
2018-02-27T10:02:37.817Z,101624.62
2018-02-27T10:05:06.404Z,101620.02
2018-02-27T10:07:35.534Z,101614.37
2018-02-27T10:10:03.904Z,101622.14
2018-02-27T10:12:33.055Z,101611.70
2018-02-27T10:15:01.658Z,101599.83
2018-02-27T10:17:30.203Z,101598.77
2018-02-27T10:19:58.687Z,101594.59
2018-02-27T10:22:27.068Z,101599.77
2018-02-27T10:24:55.552Z,101599.50
2018-02-27T10:27:23.923Z,101598.34
2018-02-27T10:29:52.509Z,101594.55
2018-02-27T10:32:20.880Z,101593.03
2018-02-27T10:34:49.272Z,101584.34
2018-02-27T10:37:17.789Z,101587.74
2018-02-27T10:39:46.163Z,101588.91
2018-02-27T10:42:14.555Z,101581.05
2018-02-27T10:44:43.280Z,101588.11
2018-02-27T10:47:12.162Z,101589.41
2018-02-27T10:49:40.649Z,101582.15
2018-02-27T10:52:09.032Z,101581.20
2018-02-27T10:54:37.415Z,101592.91
2018-02-27T10:57:06.112Z,101580.91
2018-02-27T10:59:34.548Z,101578.22
2018-02-27T11:02:03.826Z,101575.41
2018-02-27T11:04:32.255Z,101566.53
2018-02-27T11:07:00.654Z,101556.06
2018-02-27T11:09:29.033Z,101555.13
2018-02-27T11:11:57.493Z,101544.55
2018-02-27T11:14:26.663Z,101561.33
2018-02-27T11:16:55.941Z,101555.41
2018-02-27T11:19:24.328Z,101555.48
2018-02-27T11:21:52.776Z,101555.80
2018-02-27T11:24:31.103Z,101550.09
2018-02-27T11:26:59.546Z,101547.30
2018-02-27T11:29:28.728Z,101536.97
2018-02-27T11:31:57.931Z,101539.60
2018-02-27T11:34:27.704Z,101537.30
2018-02-27T11:36:56.106Z,101533.84
2018-02-27T11:39:25.308Z,101531.07
2018-02-27T11:41:53.701Z,101529.02
2018-02-27T11:44:23.156Z,101522.98
2018-02-27T11:46:51.557Z,101516.42
2018-02-27T11:49:19.970Z,101509.97
2018-02-27T11:51:48.339Z,101514.87
2018-02-27T11:54:16.718Z,101507.23
2018-02-27T11:56:45.140Z,101505.81
2018-02-27T11:59:13.508Z,101502.50
2018-02-27T12:01:41.940Z,101501.09
2018-02-27T12:04:10.325Z,101502.54
2018-02-27T12:06:38.760Z,101503.88
2018-02-27T12:09:07.141Z,101494.84
2018-02-27T12:11:35.663Z,101496.46
2018-02-27T12:14:04.328Z,101484.54
2018-02-27T12:16:32.740Z,101488.46
2018-02-27T12:19:01.139Z,101477.22
2018-02-27T12:21:29.530Z,101483.34
2018-02-27T12:23:58.715Z,101473.35
2018-02-27T12:26:27.994Z,101483.18
2018-02-27T12:28:56.421Z,101474.80
2018-02-27T12:31:25.558Z,101462.60
2018-02-27T12:33:54.003Z,101463.61
2018-02-27T12:36:22.468Z,101458.66
2018-02-27T12:38:51.635Z,101450.75
2018-02-27T12:41:20.150Z,101460.27
2018-02-27T12:43:48.523Z,101448.82
2018-02-27T12:46:16.902Z,101446.92
2018-02-27T12:48:45.286Z,101444.42
2018-02-27T12:51:13.694Z,101448.30
2018-02-27T12:53:42.900Z,101440.98
2018-02-27T12:56:11.296Z,101437.00
2018-02-27T12:58:39.720Z,101432.05
2018-02-27T13:01:08.103Z,101437.10
2018-02-27T13:03:36.536Z,101416.72
2018-02-27T13:06:05.139Z,101424.44
2018-02-27T13:08:46.381Z,101415.38
2018-02-27T13:11:15.519Z,101416.31
2018-02-27T13:13:45.197Z,101411.66
2018-02-27T13:16:13.655Z,101415.67
2018-02-27T13:18:43.361Z,101411.66
2018-02-27T13:21:23.189Z,101413.82
2018-02-27T13:23:52.059Z,101407.34
2018-02-27T13:26:20.560Z,101400.30
2018-02-27T13:28:48.957Z,101402.23
2018-02-27T13:31:18.140Z,101398.56
2018-02-27T13:33:50.350Z,101402.69
2018-02-27T13:36:20.459Z,101393.85
2018-02-27T13:38:48.951Z,101396.86
2018-02-27T13:41:17.927Z,101399.55
2018-02-27T13:43:47.976Z,101399.94
2018-02-27T13:46:16.656Z,101388.88
2018-02-27T13:48:46.143Z,101395.25
2018-02-27T13:51:16.604Z,101381.88
2018-02-27T13:53:45.364Z,101373.73
2018-02-27T13:56:13.853Z,101383.66
2018-02-27T13:58:42.501Z,101382.30
2018-02-27T14:01:11.691Z,101373.27
2018-02-27T14:03:40.986Z,101370.36
2018-02-27T14:06:10.315Z,101366.91
2018-02-27T14:08:41.220Z,101365.41
2018-02-27T14:11:09.739Z,101362.20
2018-02-27T14:13:38.467Z,101363.80
2018-02-27T14:16:06.976Z,101360.28
2018-02-27T14:18:35.357Z,101360.61
2018-02-27T14:21:03.741Z,101363.09
2018-02-27T14:23:32.384Z,101356.77
2018-02-27T14:26:00.847Z,101356.92
2018-02-27T14:28:29.431Z,101355.09
2018-02-27T14:30:58.564Z,101356.05
2018-02-27T14:33:27.004Z,101348.98
2018-02-27T14:35:55.399Z,101341.61
2018-02-27T14:38:23.828Z,101332.16
2018-02-27T14:40:52.232Z,101341.47
2018-02-27T14:43:20.663Z,101347.16
2018-02-27T14:45:50.781Z,101342.95
2018-02-27T14:48:19.156Z,101341.20
2018-02-27T14:50:47.607Z,101346.77
2018-02-27T14:53:16.041Z,101341.84
2018-02-27T14:55:44.443Z,101344.83
2018-02-27T14:58:12.945Z,101340.30
2018-02-27T15:00:41.332Z,101341.19
2018-02-27T15:03:09.739Z,101337.55
2018-02-27T15:05:38.126Z,101337.71
2018-02-27T15:08:06.527Z,101330.14
2018-02-27T15:10:34.911Z,101336.58
2018-02-27T15:13:04.143Z,101335.00
2018-02-27T15:15:32.649Z,101326.26
2018-02-27T15:18:01.177Z,101326.28
2018-02-27T15:20:30.346Z,101320.98
2018-02-27T15:22:58.736Z,101321.40
2018-02-27T15:25:27.185Z,101324.02
2018-02-27T15:27:55.616Z,101321.19
2018-02-27T15:30:24.057Z,101321.45
2018-02-27T15:32:52.517Z,101317.31
2018-02-27T15:35:21.001Z,101324.52
2018-02-27T15:37:49.379Z,101317.57
2018-02-27T15:40:17.803Z,101321.05
2018-02-27T15:42:46.409Z,101323.77
2018-02-27T15:45:14.823Z,101322.09
2018-02-27T15:47:43.203Z,101323.23
2018-02-27T15:50:11.589Z,101325.63
2018-02-27T15:52:40.295Z,101333.94
2018-02-27T15:55:08.677Z,101336.94
2018-02-27T15:57:37.102Z,101329.20
2018-02-27T16:00:05.503Z,101336.35
2018-02-27T16:02:34.679Z,101330.91
2018-02-27T16:05:03.059Z,101325.75
2018-02-27T16:07:31.580Z,101341.32
2018-02-27T16:10:00.012Z,101332.13
2018-02-27T16:12:28.419Z,101327.86
2018-02-27T16:14:58.627Z,101333.34
2018-02-27T16:17:27.139Z,101330.34
2018-02-27T16:19:55.714Z,101336.13
2018-02-27T16:22:24.880Z,101331.86
2018-02-27T16:24:53.267Z,101325.03
2018-02-27T16:27:21.871Z,101329.75
2018-02-27T16:29:51.158Z,101333.23
2018-02-27T16:32:20.806Z,101331.56
2018-02-27T16:34:49.211Z,101327.26
2018-02-27T16:37:17.758Z,101329.16
2018-02-27T16:39:46.924Z,101331.81
2018-02-27T16:42:16.209Z,101334.39
2018-02-27T16:44:45.616Z,101332.80
2018-02-27T16:47:14.392Z,101331.89
2018-02-27T16:49:42.798Z,101340.91
2018-02-27T16:52:11.369Z,101339.41
2018-02-27T16:54:40.591Z,101345.87
2018-02-27T16:57:10.091Z,101345.22
2018-02-27T16:59:38.843Z,101349.91
2018-02-27T17:02:07.307Z,101352.76
2018-02-27T17:04:35.889Z,101346.50
2018-02-27T17:07:04.845Z,101348.73
2018-02-27T17:09:35.049Z,101360.84
2018-02-27T17:12:04.901Z,101359.09
2018-02-27T17:14:33.494Z,101356.39
2018-02-27T17:17:02.731Z,101362.84
2018-02-27T17:19:31.412Z,101362.55
2018-02-27T17:21:59.949Z,101370.81
2018-02-27T17:24:29.164Z,101364.01
2018-02-27T17:26:58.342Z,101367.92
2018-02-27T17:29:27.496Z,101371.53
2018-02-27T17:31:56.172Z,101369.61
2018-02-27T17:34:24.752Z,101374.74
2018-02-27T17:36:53.203Z,101375.08
2018-02-27T17:39:22.391Z,101371.87
2018-02-27T17:41:51.545Z,101370.69
2018-02-27T17:44:20.332Z,101373.89
2018-02-27T17:46:49.195Z,101375.05
2018-02-27T17:49:17.720Z,101377.30
2018-02-27T17:51:46.945Z,101370.03
2018-02-27T17:54:15.511Z,101373.53
2018-02-27T17:56:44.739Z,101368.89
2018-02-27T17:59:14.003Z,101370.61
2018-02-27T18:01:42.543Z,101369.14
2018-02-27T18:04:11.003Z,101372.57
2018-02-27T18:06:40.376Z,101374.06
2018-02-27T18:09:08.894Z,101366.24
2018-02-27T18:11:38.082Z,101376.30
2018-02-27T18:14:06.500Z,101371.08
2018-02-27T18:16:35.163Z,101376.53
2018-02-27T18:19:04.491Z,101371.65
2018-02-27T18:21:33.218Z,101371.16
2018-02-27T18:24:02.066Z,101365.73
2018-02-27T18:26:30.584Z,101371.95
2018-02-27T18:28:59.026Z,101368.25
2018-02-27T18:31:27.426Z,101370.38
2018-02-27T18:33:56.604Z,101377.67
2018-02-27T18:36:25.024Z,101373.67
2018-02-27T18:38:53.415Z,101372.33
2018-02-27T18:41:21.846Z,101370.97
2018-02-27T18:43:50.486Z,101376.16
2018-02-27T18:46:18.731Z,101371.46
2018-02-27T18:48:47.995Z,101373.32
2018-02-27T18:51:16.387Z,101370.08
2018-02-27T18:53:44.749Z,101369.63
2018-02-27T18:56:13.204Z,101364.31
2018-02-27T18:58:41.645Z,101370.47
2018-02-27T19:01:10.939Z,101376.81
2018-02-27T19:03:39.378Z,101374.89
2018-02-27T19:06:07.941Z,101373.45
2018-02-27T19:08:36.429Z,101376.59
2018-02-27T19:11:04.986Z,101371.73
2018-02-27T19:13:33.458Z,101372.56
2018-02-27T19:16:02.782Z,101368.73
2018-02-27T19:18:31.188Z,101375.66
2018-02-27T19:20:59.621Z,101374.95
2018-02-27T19:23:28.202Z,101374.25
2018-02-27T19:25:59.929Z,101376.28
2018-02-27T19:28:31.555Z,101369.49
2018-02-27T19:30:59.980Z,101374.57
2018-02-27T19:33:28.456Z,101371.91
2018-02-27T19:35:57.005Z,101374.62
2018-02-27T19:38:27.309Z,101378.94
2018-02-27T19:40:56.670Z,101380.78
2018-02-27T19:43:25.471Z,101381.14
2018-02-27T19:45:54.036Z,101381.68
2018-02-27T19:48:22.831Z,101384.12
2018-02-27T19:50:51.483Z,101379.29
2018-02-27T19:53:20.142Z,101386.13
2018-02-27T19:55:49.393Z,101381.17
2018-02-27T19:58:17.843Z,101390.11
2018-02-27T20:00:47.775Z,101385.92
2018-02-27T20:03:17.119Z,101387.88
2018-02-27T20:05:46.251Z,101384.48
2018-02-27T20:08:14.748Z,101387.46
2018-02-27T20:10:43.184Z,101392.09
2018-02-27T20:13:11.603Z,101388.91
2018-02-27T20:15:41.325Z,101391.84
2018-02-27T20:18:11.558Z,101395.12
2018-02-27T20:20:40.015Z,101395.30
2018-02-27T20:23:13.996Z,101392.11
2018-02-27T20:25:42.428Z,101399.41
2018-02-27T20:28:16.231Z,101393.52
2018-02-27T20:30:44.655Z,101397.38
2018-02-27T20:33:13.351Z,101399.95
2018-02-27T20:35:42.800Z,101404.70
2018-02-27T20:38:12.164Z,101404.31
2018-02-27T20:40:40.706Z,101401.89
2018-02-27T20:43:09.108Z,101408.66
2018-02-27T20:45:37.559Z,101402.66
2018-02-27T20:48:06.168Z,101408.01
2018-02-27T20:50:35.146Z,101411.69
2018-02-27T20:53:03.596Z,101410.09
2018-02-27T20:55:32.824Z,101407.66
2018-02-27T20:58:01.345Z,101404.47
2018-02-27T21:00:29.744Z,101404.20
2018-02-27T21:02:58.416Z,101398.41
2018-02-27T21:05:26.801Z,101406.60
2018-02-27T21:07:55.966Z,101406.17
2018-02-27T21:10:24.646Z,101405.90
2018-02-27T21:12:53.075Z,101411.02
2018-02-27T21:15:21.777Z,101409.23
2018-02-27T21:17:50.951Z,101414.02
2018-02-27T21:20:20.195Z,101415.30
2018-02-27T21:22:49.010Z,101419.75
2018-02-27T21:25:17.451Z,101416.16
2018-02-27T21:27:46.680Z,101417.43
2018-02-27T21:30:15.217Z,101421.88
2018-02-27T21:32:43.703Z,101429.44
2018-02-27T21:35:12.894Z,101430.00
2018-02-27T21:37:42.065Z,101425.45
2018-02-27T21:40:10.540Z,101429.65
2018-02-27T21:42:38.932Z,101425.73
2018-02-27T21:45:07.373Z,101427.47
2018-02-27T21:47:35.773Z,101430.78
2018-02-27T21:50:04.317Z,101433.27
2018-02-27T21:52:33.554Z,101433.36
2018-02-27T21:55:02.038Z,101431.27
2018-02-27T21:57:30.474Z,101429.26
2018-02-27T21:59:59.798Z,101435.30
2018-02-27T22:02:28.522Z,101432.06
2018-02-27T22:04:57.121Z,101433.58
2018-02-27T22:07:25.717Z,101434.34
2018-02-27T22:09:54.297Z,101425.27
2018-02-27T22:12:23.621Z,101431.91
2018-02-27T22:14:52.022Z,101435.06
2018-02-27T22:17:20.435Z,101434.66
2018-02-27T22:19:48.832Z,101436.30
2018-02-27T22:22:17.208Z,101432.50
2018-02-27T22:24:45.631Z,101433.61
2018-02-27T22:27:14.776Z,101435.20
2018-02-27T22:29:43.267Z,101439.94
2018-02-27T22:32:11.670Z,101440.16
2018-02-27T22:34:40.130Z,101438.25
2018-02-27T22:37:08.514Z,101435.75
2018-02-27T22:39:36.996Z,101436.66
2018-02-27T22:42:05.372Z,101438.00
2018-02-27T22:44:33.892Z,101437.41
2018-02-27T22:47:02.552Z,101438.39
2018-02-27T22:49:30.933Z,101432.20
2018-02-27T22:51:59.324Z,101440.16
2018-02-27T22:54:27.930Z,101435.77
2018-02-27T22:56:57.106Z,101430.17
2018-02-27T22:59:25.656Z,101429.22
2018-02-27T23:01:54.054Z,101428.43
2018-02-27T23:04:22.439Z,101430.58
2018-02-27T23:06:50.824Z,101431.75
2018-02-27T23:09:19.231Z,101428.27
2018-02-27T23:11:48.368Z,101428.55
2018-02-27T23:14:16.900Z,101430.16
2018-02-27T23:16:45.272Z,101425.36
2018-02-27T23:19:13.674Z,101431.84
2018-02-27T23:21:42.049Z,101439.44
2018-02-27T23:24:12.909Z,101434.94
2018-02-27T23:26:46.735Z,101436.65
2018-02-27T23:29:18.099Z,101441.10
2018-02-27T23:31:52.622Z,101441.45
2018-02-27T23:34:29.296Z,101441.64
2018-02-27T23:36:57.816Z,101436.84
2018-02-27T23:39:27.239Z,101442.55
2018-02-27T23:41:55.672Z,101446.64
2018-02-27T23:44:24.084Z,101442.75
2018-02-27T23:46:52.476Z,101446.30
2018-02-27T23:49:20.846Z,101452.22
2018-02-27T23:51:49.259Z,101448.69
2018-02-27T23:54:17.641Z,101458.59
2018-02-27T23:56:46.050Z,101455.30
2018-02-27T23:59:14.411Z,101456.28
